메인 페이지
METAR-TAF:

METAR-TAF

공항 :

인디라 간디 국제공항

뉴델리, 인도

위도: 28-34N, 경도: 077-07E, 고도: 220m

현재 날씨관측

예보는 26분 전, 00:00시(UTC)에 발표되었습니다.
북동8kt
온도 24°C
습도 94%
기압 1008 hPa
시정: 3500m
고도 3000ft 상공 구름 보통
고도 3500ft 상공 구름 조금, 적란운.
고도 8000ft 상공 흐림
박무

METAR: VIDP 220000Z 04008KT 3500 BR SCT030 FEW035CB OVC080 24/23 Q1008 NOSIG

시각: 05:56 (00:26 UTC)

예보

예보는 1 시간 26분 전, 23:00시(UTC)에 발표되었습니다.
예보 대상 시간: 22일 00시부터 23일 06시까지 (UTC)
동북동7kt
시정: 2500m
고도 3000ft 상공 구름 보통
고도 10000ft 상공 구름 많음
비, 박무
일시적
22일 00시부터 22일 04시까지 (UTC)
시정: 1500m
고도 3500ft 상공 구름 조금, 적란운.
고도 8000ft 상공 흐림
뇌우, 비
전환 중
22일 05시부터 22일 07시까지 (UTC)
8kt
시정: 4000m
박무, 연무
일시적
22일 09시부터 22일 13시까지 (UTC)
고도 3500ft 상공 구름 조금, 적란운.
전환 중
22일 15시부터 22일 17시까지 (UTC)
동남동6kt
시정: 3000m
박무
일시적
22일 22시부터 23일 03시까지 (UTC)
고도 3500ft 상공 구름 조금, 적란운.
전환 중
23일 05시부터 23일 06시까지 (UTC)
동남동8kt, 순간 최대 풍속 18kt
시정: 4000m
고도 3000ft 상공 구름 조금
고도 10000ft 상공 구름 보통
박무, 연무

TAF: VIDP 212300Z 2200/2306 06007KT 2500 RA BR SCT030 BKN100 TEMPO 2200/2204 1500 TSRA FEW035CB OVC080 BECMG 2205/2207 09008KT 4000 BR HZ TEMPO 2209/2213 FEW035CB BECMG 2215/2217 12006KT 3000 BR TEMPO 2222/2303 FEW035CB BECMG 2305/2306 12008G18KT 4000 BR HZ FEW030 SCT100

4,000개 이상의 공항 관측 자료 및 예보 (METAR 및 TAF 보고).

지도상에서 검색 가능한 기상관측소가 노란 점과 빨간 점으로 표시되어 있습니다.

기상관측소 명을 보려면 표시 위로 마우스를 이동하세요.

날씨 관측과 예보를 보려면 클릭하세요.

지도 변경 : 확대하려면 엑스 표시가 있는 녹색 버튼, 축소하려면 빼기 표시가 있는 녹색 버튼, 다음 페이지의 지도를 보려면 녹색 화살표를 클릭하세요.


METAR-TAF: